createdAt,value
2023-02-22T06:29:34.105Z,2.88
2023-02-22T06:32:36.904Z,3.30
2023-02-22T06:35:39.383Z,2.95
2023-02-22T06:38:41.880Z,2.88
2023-02-22T06:41:45.017Z,2.97
2023-02-22T06:44:49.787Z,3.35
2023-02-22T06:47:53.963Z,6.35
2023-02-22T06:50:56.458Z,8.20
2023-02-22T06:53:59.105Z,6.43
2023-02-22T06:57:01.723Z,5.43
2023-02-22T07:00:06.300Z,4.57
2023-02-22T07:03:08.832Z,3.53
2023-02-22T07:06:11.451Z,4.07
2023-02-22T07:09:13.960Z,2.92
2023-02-22T07:12:16.468Z,2.83
2023-02-22T07:15:22.430Z,3.08
2023-02-22T07:18:25.076Z,3.55
2023-02-22T07:21:27.578Z,3.33
2023-02-22T07:24:30.074Z,2.63
2023-02-22T07:27:32.572Z,2.95
2023-02-22T07:30:36.433Z,2.78
2023-02-22T07:33:38.955Z,2.53
2023-02-22T07:36:41.423Z,3.10
2023-02-22T07:39:43.949Z,3.00
2023-02-22T07:42:54.385Z,2.83
2023-02-22T07:46:02.750Z,3.88
2023-02-22T07:49:05.328Z,3.92
2023-02-22T07:52:08.185Z,3.15
2023-02-22T07:55:10.674Z,5.15
2023-02-22T07:58:15.935Z,4.78
2023-02-22T08:01:19.946Z,6.78
2023-02-22T08:04:22.499Z,14.60
2023-02-22T08:07:25.041Z,18.83
2023-02-22T08:10:27.897Z,22.55
2023-02-22T08:13:30.559Z,17.02
2023-02-22T08:16:34.445Z,8.50
2023-02-22T08:19:36.946Z,5.78
2023-02-22T08:22:40.194Z,4.80
2023-02-22T08:25:43.297Z,3.40
2023-02-22T08:28:45.786Z,4.75
2023-02-22T08:31:54.179Z,4.60
2023-02-22T08:34:56.897Z,4.05
2023-02-22T08:38:02.245Z,4.10
2023-02-22T08:41:05.017Z,3.63
2023-02-22T08:44:07.490Z,3.50
2023-02-22T08:47:11.301Z,4.63
2023-02-22T08:50:18.324Z,3.80
2023-02-22T08:53:20.841Z,3.92
2023-02-22T08:56:24.246Z,3.85
2023-02-22T08:59:27.265Z,4.03
2023-02-22T09:02:31.072Z,4.25
2023-02-22T09:05:34.133Z,4.38
2023-02-22T09:08:36.595Z,4.32
2023-02-22T09:11:39.072Z,5.05
2023-02-22T09:14:42.938Z,3.92
2023-02-22T09:17:46.944Z,3.70
2023-02-22T09:20:49.468Z,4.93
2023-02-22T09:23:54.660Z,4.50
2023-02-22T09:26:59.242Z,4.82
2023-02-22T09:30:02.195Z,4.60
2023-02-22T09:33:10.038Z,4.70
2023-02-22T09:36:12.696Z,4.90
2023-02-22T09:39:16.098Z,4.38
2023-02-22T09:42:28.624Z,4.43
2023-02-22T09:45:36.930Z,3.55
2023-02-22T09:48:52.389Z,3.92
2023-02-22T09:52:02.608Z,3.72
2023-02-22T09:55:10.160Z,3.85
2023-02-22T09:58:21.837Z,3.65
2023-02-22T10:01:29.687Z,4.60
2023-02-22T10:04:41.393Z,4.00
2023-02-22T10:07:52.096Z,3.53
2023-02-22T10:11:03.212Z,3.38
2023-02-22T10:14:24.725Z,3.50
2023-02-22T10:17:34.273Z,3.50
2023-02-22T10:20:49.470Z,4.22
2023-02-22T10:24:02.169Z,3.65
2023-02-22T10:27:07.770Z,3.40
2023-02-22T10:30:24.882Z,3.47
2023-02-22T10:33:33.074Z,4.68
2023-02-22T10:36:39.125Z,3.33
2023-02-22T10:39:43.172Z,3.75
2023-02-22T10:42:45.856Z,3.35
2023-02-22T10:45:48.575Z,3.63
2023-02-22T10:48:54.907Z,3.38
2023-02-22T10:52:01.571Z,2.83
2023-02-22T10:55:15.264Z,3.80
2023-02-22T10:58:18.303Z,2.90
2023-02-22T11:01:28.561Z,3.67
2023-02-22T11:04:47.019Z,3.58
2023-02-22T11:07:50.936Z,3.10
2023-02-22T11:10:56.125Z,3.85
2023-02-22T11:13:59.652Z,3.47
2023-02-22T11:17:07.506Z,3.47
2023-02-22T11:20:25.247Z,3.40
2023-02-22T11:23:29.859Z,3.70
2023-02-22T11:26:40.684Z,3.92
2023-02-22T11:29:43.763Z,4.53
2023-02-22T11:32:49.128Z,4.25
2023-02-22T11:35:53.710Z,5.15
2023-02-22T11:39:00.693Z,3.13
2023-02-22T11:42:21.274Z,3.22
2023-02-22T11:45:24.944Z,3.05
2023-02-22T11:48:29.204Z,2.50
2023-02-22T11:51:45.085Z,3.10
2023-02-22T11:55:05.949Z,3.28
2023-02-22T11:58:26.530Z,3.65
2023-02-22T12:01:40.160Z,3.10
2023-02-22T12:05:18.471Z,3.13
2023-02-22T12:08:32.818Z,2.28
2023-02-22T12:11:46.247Z,4.28
2023-02-22T12:14:59.670Z,3.25
2023-02-22T12:18:11.843Z,3.10
2023-02-22T12:21:17.700Z,2.95
2023-02-22T12:24:23.571Z,3.08
2023-02-22T12:27:31.665Z,2.45
2023-02-22T12:30:39.459Z,3.80
2023-02-22T12:33:51.483Z,2.95
2023-02-22T12:37:01.025Z,3.80
2023-02-22T12:40:09.079Z,4.30
2023-02-22T12:43:17.565Z,3.10
2023-02-22T12:46:25.267Z,3.72
2023-02-22T12:49:35.839Z,3.35
2023-02-22T12:52:45.149Z,3.13
2023-02-22T12:55:52.208Z,3.80
2023-02-22T12:59:02.925Z,3.05
2023-02-22T13:02:16.774Z,2.80
2023-02-22T13:05:20.780Z,3.22
2023-02-22T13:08:33.150Z,3.05
2023-02-22T13:11:43.355Z,4.28
2023-02-22T13:14:59.930Z,2.67
2023-02-22T13:18:11.565Z,2.85
2023-02-22T13:21:19.979Z,2.65
2023-02-22T13:24:30.354Z,3.20
2023-02-22T13:27:39.615Z,2.88
2023-02-22T13:30:49.876Z,2.97
2023-02-22T13:34:07.240Z,3.55
2023-02-22T13:37:35.854Z,3.75
2023-02-22T13:40:56.249Z,3.63
2023-02-22T13:44:37.456Z,3.55
2023-02-22T13:48:03.703Z,2.33
2023-02-22T13:51:12.121Z,2.95
2023-02-22T13:54:21.468Z,3.15
2023-02-22T13:57:27.058Z,3.42
2023-02-22T14:00:46.332Z,3.42
2023-02-22T14:03:50.168Z,3.53
2023-02-22T14:06:52.752Z,3.45
2023-02-22T14:09:56.423Z,3.13
2023-02-22T14:13:05.705Z,3.97
2023-02-22T14:16:24.227Z,3.20
2023-02-22T14:19:28.198Z,3.17
2023-02-22T14:22:31.257Z,3.42
2023-02-22T14:25:38.622Z,2.80
2023-02-22T14:28:52.550Z,3.55
2023-02-22T14:32:07.502Z,3.45
2023-02-22T14:35:28.710Z,3.40
2023-02-22T14:38:35.982Z,3.33
2023-02-22T14:41:41.215Z,3.63
2023-02-22T14:44:53.357Z,4.00
2023-02-22T14:48:04.066Z,4.07
2023-02-22T14:51:21.784Z,3.53
2023-02-22T14:54:31.687Z,3.47
2023-02-22T14:57:44.447Z,3.28
2023-02-22T15:00:48.914Z,3.75
2023-02-22T15:04:07.243Z,3.10
2023-02-22T15:07:28.171Z,4.03
2023-02-22T15:10:32.393Z,2.83
2023-02-22T15:13:35.033Z,3.53
2023-02-22T15:16:39.593Z,4.03
2023-02-22T15:19:43.247Z,3.20
2023-02-22T15:22:49.007Z,3.05
2023-02-22T15:25:51.774Z,3.70
2023-02-22T15:28:56.046Z,3.67
2023-02-22T15:31:58.549Z,3.55
2023-02-22T15:35:13.941Z,3.15
2023-02-22T15:38:21.995Z,4.15
2023-02-22T15:41:30.366Z,3.35
2023-02-22T15:44:36.930Z,3.53
2023-02-22T15:47:40.110Z,3.13
2023-02-22T15:51:00.409Z,3.72
2023-02-22T15:54:13.308Z,3.88
2023-02-22T15:57:27.397Z,3.90
2023-02-22T16:00:36.891Z,2.95
2023-02-22T16:03:44.990Z,2.85
2023-02-22T16:06:48.604Z,3.65
2023-02-22T16:09:53.264Z,3.03
2023-02-22T16:13:16.643Z,3.70
2023-02-22T16:16:31.035Z,3.25
2023-02-22T16:19:40.732Z,3.28
2023-02-22T16:22:49.194Z,3.88
2023-02-22T16:26:11.494Z,2.72
2023-02-22T16:29:26.705Z,3.05
2023-02-22T16:32:30.661Z,3.22
2023-02-22T16:35:35.482Z,2.95
